Time;durP1;ratioP1;P1;durP2;ratioP2;P2;SDS_P1;SDS_P2;PMS_P1;PMS_P2;Temp;Humidity;BMP_temperature;BMP_pressure;BME280_temperature;BME280_humidity;BME280_pressure;Samples;Min_cycle;Max_cycle;Signal;HPM_P1;HPM_P2
2022/05/15 04:38:48;;;;;;;6.18;2.53;;;15.40;61.90;;;;;;5850017;23;20032;-70
2022/05/15 04:41:14;;;;;;;6.97;2.83;;;15.30;62.10;;;;;;4894837;29;20201;-70
2022/05/15 04:43:39;;;;;;;8.35;2.72;;;15.40;62.60;;;;;;4896707;29;20135;-69
2022/05/15 04:46:07;;;;;;;7.47;2.60;;;15.50;63.60;;;;;;4899787;29;20147;-69
2022/05/15 04:48:39;;;;;;;8.95;2.67;;;15.70;64.30;;;;;;4900168;29;20139;-71
2022/05/15 04:51:05;;;;;;;4.10;2.42;;;15.90;64.90;;;;;;4897808;29;20048;-71
2022/05/15 04:53:31;;;;;;;6.32;2.33;;;16.00;63.50;;;;;;4899855;29;20045;-70
2022/05/15 04:55:58;;;;;;;4.18;1.73;;;16.20;63.00;;;;;;4898858;29;20143;-72
2022/05/15 04:58:24;;;;;;;4.60;1.83;;;16.40;62.50;;;;;;4898462;29;20461;-72
2022/05/15 05:00:50;;;;;;;6.70;2.17;;;16.40;62.70;;;;;;4898554;29;20044;-71
2022/05/15 05:03:16;;;;;;;5.97;2.22;;;16.50;62.10;;;;;;4899742;29;20056;-72
2022/05/15 05:05:42;;;;;;;7.10;2.47;;;16.70;62.00;;;;;;4902072;29;20058;-73
2022/05/15 05:08:09;;;;;;;7.53;2.10;;;16.80;61.90;;;;;;4902942;29;20048;-72
2022/05/15 05:10:36;;;;;;;4.63;1.77;;;16.90;61.90;;;;;;4902344;29;20135;-72
2022/05/15 05:13:01;;;;;;;7.32;2.35;;;16.90;61.90;;;;;;4901685;29;20128;-73
2022/05/15 05:15:27;;;;;;;5.25;1.67;;;17.00;61.90;;;;;;4901361;29;20060;-73
2022/05/15 05:17:54;;;;;;;5.05;1.63;;;17.10;61.90;;;;;;4901089;29;20087;-73
2022/05/15 05:20:20;;;;;;;3.17;1.42;;;17.10;61.70;;;;;;4901629;29;20425;-73
2022/05/15 05:22:45;;;;;;;5.13;1.70;;;17.20;61.80;;;;;;4902265;29;20057;-72
2022/05/15 05:25:11;;;;;;;7.28;1.85;;;17.20;61.70;;;;;;4902065;29;20059;-72
2022/05/15 05:27:39;;;;;;;7.80;1.95;;;17.20;61.70;;;;;;4902134;29;20131;-73
2022/05/15 05:30:07;;;;;;;4.82;1.75;;;17.20;61.70;;;;;;4901789;29;20052;-73
2022/05/15 05:32:33;;;;;;;5.03;1.50;;;17.30;62.20;;;;;;4901793;29;20049;-73
2022/05/15 05:34:58;;;;;;;4.60;1.65;;;17.30;62.70;;;;;;4900040;29;20521;-72
2022/05/15 05:37:24;;;;;;;4.90;1.55;;;17.30;62.60;;;;;;4901220;29;20048;-73
2022/05/15 05:39:50;;;;;;;4.82;1.83;;;17.30;62.60;;;;;;4901272;29;20056;-71
2022/05/15 05:42:16;;;;;;;4.28;1.73;;;17.30;62.60;;;;;;4902050;29;20056;-71
2022/05/15 05:44:41;;;;;;;6.43;2.38;;;17.30;62.90;;;;;;4899384;29;20060;-71
2022/05/15 05:47:07;;;;;;;9.50;2.33;;;17.30;63.20;;;;;;4902155;29;20437;-71
2022/05/15 05:49:33;;;;;;;5.28;2.28;;;17.40;63.50;;;;;;4901423;29;20058;-71
2022/05/15 05:51:59;;;;;;;7.15;2.22;;;17.30;63.60;;;;;;4901723;29;20420;-71
2022/05/15 05:54:25;;;;;;;5.93;2.20;;;17.40;64.00;;;;;;4901461;29;20119;-72
2022/05/15 05:56:50;;;;;;;5.90;1.98;;;17.40;64.20;;;;;;4901455;29;20051;-83
2022/05/15 05:59:16;;;;;;;8.35;2.15;;;17.40;65.00;;;;;;4901109;29;20083;-73
2022/05/15 06:01:42;;;;;;;8.20;2.47;;;17.40;65.90;;;;;;4901349;29;20123;-72
2022/05/15 06:06:53;;;;;;;9.48;1.95;;;17.50;68.00;;;;;;4901344;29;20489;-70
2022/05/15 06:09:19;;;;;;;7.75;2.20;;;17.50;68.00;;;;;;4901512;29;20129;-71
2022/05/15 06:11:45;;;;;;;8.23;2.72;;;17.60;68.50;;;;;;4901022;29;20053;-71
2022/05/15 06:14:11;;;;;;;7.75;2.83;;;17.60;68.70;;;;;;4888239;29;20049;-70
2022/05/15 06:16:37;;;;;;;8.98;2.88;;;17.60;69.30;;;;;;4901557;29;20052;-71
2022/05/15 06:19:03;;;;;;;10.70;3.35;;;17.70;69.50;;;;;;4900983;29;20095;-72
2022/05/15 06:21:28;;;;;;;10.25;2.85;;;17.70;70.40;;;;;;4901357;29;20057;-71
2022/05/15 06:23:54;;;;;;;8.05;2.53;;;17.80;70.90;;;;;;4900303;29;20060;-72
2022/05/15 06:26:22;;;;;;;6.82;2.90;;;17.80;69.90;;;;;;4901594;29;20060;-79
2022/05/15 06:28:48;;;;;;;9.50;3.17;;;17.80;67.90;;;;;;4885340;29;20056;-79
2022/05/15 06:31:14;;;;;;;13.55;4.10;;;17.90;67.10;;;;;;4884464;29;20044;-81
2022/05/15 06:33:49;;;;;;;15.20;4.40;;;17.90;66.40;;;;;;4870778;29;20373;-81
2022/05/15 06:36:17;;;;;;;11.25;4.18;;;17.90;65.80;;;;;;4885563;29;20048;-82
2022/05/15 06:38:43;;;;;;;18.33;4.65;;;17.90;65.50;;;;;;4900114;29;20127;-76
2022/05/15 06:41:09;;;;;;;16.70;4.00;;;17.90;65.30;;;;;;4900875;29;20466;-81
2022/05/15 06:43:41;;;;;;;15.27;4.25;;;17.90;64.90;;;;;;4899965;29;20060;-88
2022/05/15 06:46:07;;;;;;;22.40;5.20;;;17.90;64.40;;;;;;4875917;29;20052;-75
2022/05/15 06:48:33;;;;;;;18.55;4.35;;;17.90;63.80;;;;;;4900766;29;20055;-71
2022/05/15 06:51:00;;;;;;;17.58;5.18;;;17.90;63.50;;;;;;4900747;29;20051;-81
2022/05/15 06:53:26;;;;;;;25.60;6.25;;;17.90;63.30;;;;;;4899454;29;20173;-80
2022/05/15 06:58:36;;;;;;;19.27;5.38;;;18.00;63.30;;;;;;4884326;29;20113;-80
2022/05/15 07:01:02;;;;;;;18.55;5.10;;;18.00;63.30;;;;;;4884059;29;20162;-80
2022/05/15 07:03:28;;;;;;;25.08;5.35;;;18.00;63.50;;;;;;4883964;29;20476;-81
2022/05/15 07:05:53;;;;;;;17.15;4.78;;;18.00;63.50;;;;;;4900444;29;20047;-80
2022/05/15 07:08:19;;;;;;;19.80;5.22;;;18.10;63.60;;;;;;4915562;29;20445;-79
2022/05/15 07:10:45;;;;;;;19.98;5.53;;;18.10;63.40;;;;;;4915145;29;20139;-76
2022/05/15 07:13:11;;;;;;;18.92;5.10;;;18.20;63.10;;;;;;4897825;29;20051;-77
2022/05/15 07:15:37;;;;;;;28.20;6.10;;;18.10;63.10;;;;;;4883786;29;20045;-72
2022/05/15 07:21:27;;;;;;;20.60;4.72;;;18.30;63.50;;;;;;4900444;29;20045;-75
2022/05/15 07:23:53;;;;;;;16.75;4.72;;;18.30;62.60;;;;;;4900027;29;20426;-82
2022/05/15 07:26:19;;;;;;;22.52;4.75;;;18.40;61.90;;;;;;4889495;29;20107;-81
2022/05/15 07:28:50;;;;;;;15.18;4.15;;;18.40;61.80;;;;;;4906297;29;20041;-77
2022/05/15 07:31:21;;;;;;;19.65;4.97;;;18.40;61.60;;;;;;4886672;29;20048;-81
2022/05/15 07:33:49;;;;;;;19.67;4.43;;;18.30;61.30;;;;;;4915058;29;20045;-78
2022/05/15 07:36:15;;;;;;;20.45;5.15;;;18.30;61.70;;;;;;4899510;29;20354;-81
2022/05/15 07:38:41;;;;;;;24.48;5.03;;;18.30;62.00;;;;;;4883664;29;20041;-80
2022/05/15 07:41:09;;;;;;;19.38;4.20;;;18.30;62.10;;;;;;4899814;29;20048;-84
2022/05/15 07:43:39;;;;;;;24.75;4.90;;;18.40;62.10;;;;;;4914523;29;20048;-82
2022/05/15 07:46:04;;;;;;;18.95;5.90;;;18.40;62.10;;;;;;4870148;29;20408;-78
2022/05/15 07:48:30;;;;;;;20.73;4.22;;;18.40;62.60;;;;;;4898681;29;20123;-72
2022/05/15 07:50:56;;;;;;;12.82;4.10;;;18.40;63.70;;;;;;4899515;29;20083;-80
2022/05/15 07:53:22;;;;;;;21.20;5.38;;;18.40;63.60;;;;;;4898706;29;20056;-71
2022/05/15 07:55:48;;;;;;;17.38;4.20;;;18.50;64.80;;;;;;4899744;29;20049;-81
2022/05/15 07:58:13;;;;;;;13.48;3.78;;;18.50;64.20;;;;;;4897014;29;20410;-81
2022/05/15 08:00:42;;;;;;;16.90;4.78;;;18.50;64.50;;;;;;4914777;29;20057;-80
2022/05/15 08:09:07;;;;;;;18.20;4.95;;;18.60;64.00;;;;;;4899899;29;20057;-72
2022/05/15 08:11:36;;;;;;;13.80;4.38;;;18.60;64.10;;;;;;4898833;29;20048;-83
2022/05/15 08:14:05;;;;;;;15.38;4.25;;;18.60;64.30;;;;;;4899755;29;20043;-82
2022/05/15 08:16:35;;;;;;;14.15;4.25;;;18.60;64.70;;;;;;4883565;29;20029;-83
2022/05/15 08:24:30;;;;;;;21.50;4.05;;;18.70;64.40;;;;;;4883573;29;20131;-85
2022/05/15 08:26:56;;;;;;;21.55;5.13;;;18.70;64.50;;;;;;4867806;29;20573;-75
2022/05/15 08:29:22;;;;;;;17.38;4.35;;;18.70;65.20;;;;;;4899562;29;20159;-74
2022/05/15 08:31:47;;;;;;;16.90;3.65;;;18.80;65.50;;;;;;4899283;29;20127;-74
2022/05/15 08:34:14;;;;;;;11.45;3.83;;;18.80;65.50;;;;;;4899688;29;20052;-74
2022/05/15 08:36:42;;;;;;;16.75;4.13;;;18.80;65.60;;;;;;4899201;29;20053;-74
2022/05/15 08:39:09;;;;;;;11.10;3.67;;;18.80;65.40;;;;;;4901679;29;20049;-76
2022/05/15 08:41:51;;;;;;;10.63;3.53;;;18.80;65.50;;;;;;4902497;29;20060;-73
2022/05/15 08:44:29;;;;;;;16.67;4.45;;;18.80;66.10;;;;;;4884724;29;20373;-72
2022/05/15 08:47:15;;;;;;;18.92;3.85;;;18.90;66.40;;;;;;4902329;29;20044;-71
2022/05/15 08:50:02;;;;;;;14.65;3.45;;;18.90;67.80;;;;;;4903554;29;20053;-71
2022/05/15 08:52:36;;;;;;;9.10;3.65;;;18.90;67.50;;;;;;4902951;29;20071;-72
2022/05/15 08:55:16;;;;;;;14.90;3.88;;;18.90;67.60;;;;;;4902408;29;20130;-71
2022/05/15 08:58:13;;;;;;;16.00;3.58;;;19.00;67.80;;;;;;4903211;29;20057;-76
2022/05/15 09:00:47;;;;;;;17.42;4.85;;;19.10;67.70;;;;;;4887907;29;20123;-76
2022/05/15 09:03:18;;;;;;;21.10;4.38;;;19.10;67.00;;;;;;4902473;29;20044;-78
2022/05/15 09:06:09;;;;;;;15.70;3.88;;;19.10;67.30;;;;;;4902834;29;20079;-74
2022/05/15 09:08:55;;;;;;;18.35;3.83;;;19.20;67.20;;;;;;4902729;29;20091;-74
2022/05/15 09:11:43;;;;;;;22.58;4.55;;;19.20;66.30;;;;;;4901417;29;20071;-76
2022/05/15 09:14:38;;;;;;;19.02;4.32;;;19.20;65.90;;;;;;4865472;29;20056;-73
2022/05/15 09:17:30;;;;;;;27.92;4.97;;;19.30;66.40;;;;;;4902645;29;20081;-75
2022/05/15 09:19:59;;;;;;;21.15;5.03;;;19.30;66.30;;;;;;4902719;29;20457;-79
2022/05/15 09:22:35;;;;;;;15.57;4.55;;;19.30;65.50;;;;;;4889913;29;20098;-79
2022/05/15 09:25:06;;;;;;;20.90;5.07;;;19.30;64.70;;;;;;4902334;29;20053;-80
2022/05/15 09:27:32;;;;;;;17.23;4.47;;;19.40;65.10;;;;;;4901082;29;20091;-77
2022/05/15 09:30:05;;;;;;;27.77;5.70;;;19.40;65.20;;;;;;4901337;29;20426;-74
2022/05/15 09:32:40;;;;;;;21.27;4.47;;;19.40;65.70;;;;;;4902171;29;20080;-73
2022/05/15 09:35:32;;;;;;;19.65;5.20;;;19.50;65.50;;;;;;4902138;29;20052;-73
2022/05/15 09:43:33;;;;;;;24.02;4.95;;;19.60;64.40;;;;;;4900728;29;20055;-74
2022/05/15 09:46:26;;;;;;;18.58;4.65;;;19.60;64.10;;;;;;4902175;29;20051;-78
2022/05/15 09:49:05;;;;;;;17.80;4.57;;;19.60;63.10;;;;;;4899557;29;20114;-77
2022/05/15 09:51:52;;;;;;;17.52;4.60;;;19.60;63.70;;;;;;4900568;29;20498;-78
2022/05/15 09:54:33;;;;;;;17.65;3.80;;;19.70;63.40;;;;;;4899323;29;20053;-78
2022/05/15 09:57:09;;;;;;;22.17;4.07;;;19.70;62.50;;;;;;4901965;29;20139;-76
2022/05/15 09:59:35;;;;;;;20.45;4.38;;;19.70;62.20;;;;;;4902073;29;20484;-78
2022/05/15 10:02:01;;;;;;;16.30;4.43;;;19.70;62.40;;;;;;4901504;29;20128;-79
2022/05/15 10:04:32;;;;;;;15.80;3.58;;;19.70;63.00;;;;;;4901666;29;20119;-80
2022/05/15 10:07:02;;;;;;;17.98;4.13;;;19.70;61.60;;;;;;4900912;29;20041;-79
2022/05/15 10:09:31;;;;;;;18.73;4.05;;;19.70;62.00;;;;;;4901274;29;20044;-80
2022/05/15 10:12:32;;;;;;;19.23;4.60;;;19.70;62.50;;;;;;4892483;29;20049;-75
2022/05/15 10:15:02;;;;;;;18.30;4.70;;;19.70;62.70;;;;;;4882632;29;20061;-77
2022/05/15 10:17:28;;;;;;;20.67;3.90;;;19.70;62.50;;;;;;4882805;29;20049;-77
2022/05/15 10:20:18;;;;;;;19.92;4.75;;;19.70;62.60;;;;;;4882980;29;20488;-77
2022/05/15 10:22:58;;;;;;;17.23;3.83;;;19.70;63.00;;;;;;4896839;29;20040;-75
2022/05/15 10:25:51;;;;;;;20.15;3.80;;;19.70;63.00;;;;;;4882577;29;20056;-84
2022/05/15 10:28:33;;;;;;;17.55;4.22;;;19.70;63.20;;;;;;4882610;29;20109;-76
2022/05/15 10:31:21;;;;;;;22.10;4.13;;;19.80;63.20;;;;;;4883021;29;20084;-75
2022/05/15 10:34:01;;;;;;;27.80;4.45;;;19.80;63.50;;;;;;4900904;29;20461;-74
2022/05/15 10:37:04;;;;;;;14.80;3.65;;;19.80;63.80;;;;;;4901054;29;20095;-75
2022/05/15 10:40:06;;;;;;;20.65;3.70;;;19.70;63.90;;;;;;4883847;29;20493;-78
2022/05/15 10:42:44;;;;;;;15.20;3.97;;;19.80;64.00;;;;;;4900506;29;20112;-74
2022/05/15 10:45:36;;;;;;;17.52;3.95;;;19.80;63.90;;;;;;4900975;29;20082;-70
2022/05/15 10:48:34;;;;;;;15.40;3.47;;;19.80;63.90;;;;;;4893967;29;20071;-72
2022/05/15 10:51:16;;;;;;;21.35;3.92;;;19.80;64.00;;;;;;4898694;29;20085;-75
2022/05/15 10:57:28;;;;;;;18.60;4.20;;;19.80;63.60;;;;;;4883639;29;20056;-79
2022/05/15 10:59:55;;;;;;;17.67;3.95;;;19.80;63.50;;;;;;4884453;29;20084;-79
2022/05/15 11:02:35;;;;;;;21.30;4.38;;;19.80;61.60;;;;;;4899775;29;20415;-78
2022/05/15 11:05:28;;;;;;;15.68;4.07;;;19.90;59.80;;;;;;4884095;29;20084;-82
2022/05/15 11:08:00;;;;;;;16.65;4.03;;;19.90;60.40;;;;;;4897955;29;20043;-84
2022/05/15 11:10:47;;;;;;;14.73;3.95;;;19.80;60.70;;;;;;4898481;29;20083;-84
2022/05/15 11:13:34;;;;;;;17.77;4.40;;;19.80;60.90;;;;;;4867392;29;20366;-77
2022/05/15 11:16:10;;;;;;;15.73;4.25;;;19.80;61.10;;;;;;4895993;29;20462;-76
2022/05/15 11:18:50;;;;;;;15.65;5.13;;;19.80;61.50;;;;;;4881727;29;20055;-75
2022/05/15 11:21:45;;;;;;;14.85;3.75;;;19.90;61.80;;;;;;4882381;29;20053;-74
2022/05/15 11:24:59;;;;;;;14.65;3.80;;;19.80;62.10;;;;;;4899896;29;20049;-75
2022/05/15 11:27:39;;;;;;;12.13;3.50;;;19.90;62.30;;;;;;4887938;29;20064;-75
2022/05/15 11:30:30;;;;;;;11.98;3.35;;;19.90;62.60;;;;;;4883757;29;20049;-75
2022/05/15 11:33:08;;;;;;;12.48;3.47;;;19.90;62.70;;;;;;4899999;29;20350;-74
2022/05/15 11:35:41;;;;;;;20.20;4.05;;;19.90;63.00;;;;;;4900593;29;20056;-74
2022/05/15 11:38:11;;;;;;;21.10;4.05;;;19.90;63.00;;;;;;4900143;29;20135;-74
2022/05/15 11:40:49;;;;;;;15.98;3.80;;;19.90;63.30;;;;;;4899947;29;20152;-74
2022/05/15 11:43:34;;;;;;;18.42;4.35;;;19.90;63.40;;;;;;4899722;29;20148;-75
2022/05/15 11:46:09;;;;;;;16.60;3.80;;;19.90;63.10;;;;;;4899543;29;20061;-79
2022/05/15 11:48:38;;;;;;;16.20;4.10;;;19.90;63.70;;;;;;4883760;29;20394;-84
2022/05/15 11:51:13;;;;;;;17.08;4.35;;;19.90;63.10;;;;;;4899469;29;20222;-77
2022/05/15 11:53:54;;;;;;;13.38;3.95;;;19.90;63.00;;;;;;4899978;29;20383;-74
2022/05/15 11:56:51;;;;;;;17.90;4.55;;;19.90;62.50;;;;;;4899790;29;20053;-74
2022/05/15 11:59:26;;;;;;;13.40;3.85;;;19.90;62.80;;;;;;4900173;29;20052;-78
2022/05/15 12:02:00;;;;;;;13.25;3.95;;;19.90;63.30;;;;;;4899811;29;20057;-74
2022/05/15 12:04:35;;;;;;;18.33;4.25;;;19.90;63.10;;;;;;4900171;29;20136;-74
2022/05/15 12:07:01;;;;;;;17.63;4.22;;;20.00;62.80;;;;;;4899951;29;20477;-75
2022/05/15 12:09:33;;;;;;;12.65;3.60;;;20.00;63.30;;;;;;4900153;29;20052;-75
2022/05/15 12:12:20;;;;;;;19.27;4.07;;;19.90;63.30;;;;;;4899852;29;20476;-74
2022/05/15 12:15:13;;;;;;;17.35;3.67;;;20.00;63.60;;;;;;4887686;29;20112;-75
2022/05/15 12:17:42;;;;;;;14.30;3.20;;;19.90;63.80;;;;;;4903624;29;20064;-75
2022/05/15 12:20:16;;;;;;;15.70;5.13;;;19.90;63.80;;;;;;4903215;29;20084;-75
2022/05/15 12:22:50;;;;;;;14.55;3.63;;;19.90;63.90;;;;;;4903708;29;20331;-74
2022/05/15 12:25:17;;;;;;;17.02;4.28;;;19.90;64.00;;;;;;4903782;29;20053;-80
2022/05/15 12:31:03;;;;;;;;;;;19.90;63.90;;;;;;4890672;29;20462;-85
2022/05/15 12:33:30;;;;;;;12.05;3.28;;;19.90;64.20;;;;;;4884498;29;20344;-83
2022/05/15 12:35:58;;;;;;;32.47;4.70;;;19.90;65.50;;;;;;4868023;29;20049;-79
2022/05/15 12:38:26;;;;;;;19.15;4.07;;;19.90;65.50;;;;;;4868157;29;20347;-85
2022/05/15 12:41:01;;;;;;;23.70;4.15;;;20.00;65.60;;;;;;4883994;29;20064;-81
2022/05/15 12:43:39;;;;;;;18.50;3.85;;;19.90;65.70;;;;;;4883022;29;20385;-84
2022/05/15 12:46:07;;;;;;;21.65;4.35;;;19.90;66.00;;;;;;4886563;29;20052;-81
2022/05/15 12:48:37;;;;;;;23.52;3.88;;;20.00;66.30;;;;;;4886298;29;20055;-84
2022/05/15 12:51:09;;;;;;;17.92;4.00;;;19.90;66.00;;;;;;4886125;29;20049;-75
2022/05/15 12:53:48;;;;;;;19.00;3.67;;;20.00;66.80;;;;;;4902940;29;20051;-83
2022/05/15 13:00:14;;;;;;;12.02;2.80;;;19.90;66.10;;;;;;4834517;29;20053;-84
2022/05/15 13:02:40;;;;;;;10.13;2.70;;;20.00;65.00;;;;;;4855159;29;20048;-84
2022/05/15 13:05:27;;;;;;;12.55;2.42;;;20.00;65.20;;;;;;4867386;29;20063;-84
2022/05/15 13:08:01;;;;;;;13.07;3.03;;;20.00;64.80;;;;;;4867718;29;20546;-80
2022/05/15 13:10:28;;;;;;;11.80;3.33;;;20.00;65.10;;;;;;4867440;29;20126;-81
2022/05/15 13:13:02;;;;;;;13.75;2.60;;;19.90;64.80;;;;;;4897077;29;20049;-82
2022/05/15 13:15:31;;;;;;;8.35;2.10;;;20.00;64.70;;;;;;4902644;29;20064;-82
2022/05/15 13:18:04;;;;;;;9.65;2.55;;;20.00;64.70;;;;;;4901531;29;20066;-82
2022/05/15 13:20:31;;;;;;;8.75;2.22;;;20.00;64.60;;;;;;4902406;29;20428;-81
2022/05/15 13:22:59;;;;;;;11.13;2.92;;;19.90;64.50;;;;;;4887751;29;20053;-83
2022/05/15 13:25:28;;;;;;;10.98;2.65;;;19.90;64.50;;;;;;4869372;29;20049;-76
2022/05/15 13:27:57;;;;;;;11.23;2.83;;;20.00;64.50;;;;;;4901929;29;20498;-82
2022/05/15 13:30:39;;;;;;;13.48;2.90;;;19.90;64.20;;;;;;4901954;29;20488;-83
2022/05/15 13:33:19;;;;;;;8.07;3.00;;;20.00;64.40;;;;;;4896759;29;20461;-83
2022/05/15 13:35:54;;;;;;;8.63;2.55;;;19.90;64.30;;;;;;4896827;29;20057;-79
2022/05/15 13:44:16;;;;;;;8.68;2.55;;;19.90;64.10;;;;;;4902158;29;20053;-80
2022/05/15 13:47:10;;;;;;;9.27;2.55;;;19.90;64.10;;;;;;4901407;29;20132;-77
2022/05/15 13:49:54;;;;;;;10.32;2.35;;;20.00;64.50;;;;;;4902044;29;20049;-80
2022/05/15 13:52:29;;;;;;;7.78;2.70;;;20.00;64.10;;;;;;4890530;29;20084;-79
2022/05/15 13:54:57;;;;;;;9.20;2.55;;;20.00;63.90;;;;;;4901930;29;20067;-79
2022/05/15 13:57:24;;;;;;;10.25;2.75;;;20.00;63.90;;;;;;4901974;29;20044;-78
2022/05/15 13:59:49;;;;;;;7.50;2.38;;;20.00;63.90;;;;;;4902051;29;20112;-78
2022/05/15 14:02:15;;;;;;;9.48;2.75;;;20.00;64.00;;;;;;4901381;29;20072;-78
2022/05/15 14:04:44;;;;;;;8.82;2.85;;;19.90;63.90;;;;;;4901543;29;20052;-78
2022/05/15 14:07:23;;;;;;;8.52;2.97;;;19.90;63.90;;;;;;4901662;29;20063;-78
2022/05/15 14:09:55;;;;;;;10.95;2.88;;;19.90;64.00;;;;;;4901488;29;20052;-78
2022/05/15 14:12:39;;;;;;;5.55;2.17;;;19.90;64.00;;;;;;4901452;29;20063;-78
2022/05/15 14:15:07;;;;;;;12.13;3.00;;;19.90;64.00;;;;;;4900974;29;20112;-78
2022/05/15 14:17:51;;;;;;;6.78;2.70;;;19.90;64.20;;;;;;4901524;29;20075;-78
2022/05/15 14:20:29;;;;;;;8.85;2.67;;;19.90;64.10;;;;;;4901694;29;20044;-78
2022/05/15 14:22:55;;;;;;;7.10;1.92;;;19.90;64.20;;;;;;4901000;29;20049;-78
2022/05/15 14:25:21;;;;;;;6.25;2.25;;;19.90;64.30;;;;;;4901340;29;20060;-78
2022/05/15 14:27:47;;;;;;;7.18;2.58;;;19.90;64.40;;;;;;4901773;29;20342;-78
2022/05/15 14:30:13;;;;;;;5.20;2.40;;;19.90;64.40;;;;;;4901751;29;20051;-78
2022/05/15 14:32:39;;;;;;;6.97;2.28;;;19.90;64.40;;;;;;4895030;29;20056;-78
2022/05/15 14:35:09;;;;;;;6.35;2.53;;;19.90;64.50;;;;;;4901270;29;20601;-78
2022/05/15 14:37:34;;;;;;;5.32;1.83;;;19.90;64.50;;;;;;4901498;29;20044;-78
2022/05/15 14:40:00;;;;;;;4.82;2.33;;;19.90;64.50;;;;;;4901198;29;20358;-78
2022/05/15 14:42:29;;;;;;;5.05;2.38;;;19.90;64.60;;;;;;4901078;29;20056;-78
2022/05/15 14:44:57;;;;;;;8.23;2.17;;;19.90;64.60;;;;;;4901630;29;20071;-78
2022/05/15 14:47:28;;;;;;;7.65;2.70;;;19.90;64.60;;;;;;4901048;29;20457;-78
2022/05/15 14:49:55;;;;;;;5.50;2.00;;;19.90;64.70;;;;;;4901605;29;20064;-78
2022/05/15 14:52:31;;;;;;;5.90;1.73;;;19.90;64.70;;;;;;4900544;29;20044;-81
2022/05/15 14:54:57;;;;;;;6.93;2.25;;;19.90;64.60;;;;;;4899203;29;20053;-78
2022/05/15 14:57:23;;;;;;;15.27;2.65;;;20.00;64.40;;;;;;4899483;29;20056;-80
2022/05/15 14:59:52;;;;;;;16.45;2.67;;;20.00;65.50;;;;;;4900823;29;20042;-79
2022/05/15 15:02:24;;;;;;;10.93;3.20;;;20.00;65.00;;;;;;4900536;29;20038;-76
2022/05/15 15:04:50;;;;;;;10.57;2.60;;;20.10;65.00;;;;;;4900622;29;20335;-79
2022/05/15 15:07:16;;;;;;;10.50;2.45;;;20.10;65.10;;;;;;4899452;29;20047;-78
2022/05/15 15:09:42;;;;;;;13.45;2.20;;;20.20;65.10;;;;;;4883766;29;20124;-79
2022/05/15 15:12:08;;;;;;;8.82;2.90;;;20.20;65.20;;;;;;4900290;29;20186;-78
2022/05/15 15:14:34;;;;;;;10.63;2.67;;;20.20;65.00;;;;;;4900493;29;20045;-85
2022/05/15 15:17:29;;;;;;;13.15;3.38;;;20.20;65.20;;;;;;4900383;29;20353;-87
2022/05/15 15:24:28;;;;;;;;;;;;;;;;;;;;;
2022/05/15 15:28:09;;;;;;;8.65;2.17;;;20.20;64.70;;;;;;4806012;29;20076;-85
2022/05/15 15:40:34;;;;;;;6.13;2.30;;;20.30;64.90;;;;;;4898863;29;20065;-86
2022/05/15 15:43:00;;;;;;;6.60;2.08;;;20.30;64.90;;;;;;4899133;29;20484;-84
2022/05/15 15:45:54;;;;;;;13.05;3.03;;;20.30;64.80;;;;;;4899338;29;20074;-87
2022/05/15 15:48:31;;;;;;;11.90;2.17;;;20.40;63.80;;;;;;4867238;29;20518;-77
2022/05/15 15:50:57;;;;;;;10.10;2.40;;;20.50;63.10;;;;;;4899743;29;20472;-81
2022/05/15 15:53:24;;;;;;;8.18;2.13;;;20.60;62.60;;;;;;4899665;29;20136;-81
2022/05/15 15:55:51;;;;;;;8.13;2.25;;;20.70;61.10;;;;;;4900182;29;20130;-83
2022/05/15 15:58:31;;;;;;;7.93;2.42;;;20.70;61.60;;;;;;4898340;29;20108;-88
2022/05/15 16:00:56;;;;;;;9.65;2.78;;;20.70;60.90;;;;;;4902464;29;20221;-73
2022/05/15 16:03:22;;;;;;;8.65;2.22;;;20.80;60.80;;;;;;4918713;29;20075;-80
2022/05/15 16:05:57;;;;;;;7.82;2.28;;;20.80;61.10;;;;;;4891312;29;20049;-84
2022/05/15 16:08:29;;;;;;;8.32;2.42;;;20.80;60.20;;;;;;4898088;29;20068;-85
2022/05/15 16:10:56;;;;;;;10.40;2.42;;;20.80;60.30;;;;;;4894528;29;20064;-81
2022/05/15 16:13:25;;;;;;;6.80;2.78;;;20.80;60.80;;;;;;4892872;29;20096;-83
2022/05/15 16:15:51;;;;;;;10.05;2.30;;;20.90;60.40;;;;;;4877887;29;20525;-83
2022/05/15 16:18:18;;;;;;;10.65;2.85;;;20.80;59.90;;;;;;4875749;29;20033;-85
2022/05/15 16:21:16;;;;;;;11.25;2.67;;;20.80;60.40;;;;;;4881935;29;20036;-78
2022/05/15 16:23:43;;;;;;;8.13;2.22;;;20.80;61.50;;;;;;4867243;29;20196;-78
2022/05/15 16:26:11;;;;;;;7.45;2.60;;;20.80;61.80;;;;;;4896323;29;20104;-77
2022/05/15 16:28:40;;;;;;;13.52;3.30;;;20.70;61.90;;;;;;4896768;29;20051;-79
2022/05/15 16:31:07;;;;;;;8.77;2.80;;;20.70;63.00;;;;;;4888132;29;20045;-77
2022/05/15 16:33:35;;;;;;;14.25;3.28;;;20.60;63.80;;;;;;4896179;29;20049;-78
2022/05/15 16:36:01;;;;;;;11.98;3.00;;;20.60;63.60;;;;;;4897116;29;20108;-78
2022/05/15 16:38:28;;;;;;;17.83;2.95;;;20.60;63.70;;;;;;4910608;29;20051;-78
2022/05/15 16:40:55;;;;;;;9.88;2.83;;;20.60;64.10;;;;;;4895932;29;20096;-77
2022/05/15 16:43:21;;;;;;;11.48;2.55;;;20.60;64.30;;;;;;4899819;29;20448;-78
2022/05/15 16:45:46;;;;;;;13.45;2.65;;;20.60;63.80;;;;;;4867719;29;20076;-76
2022/05/15 16:48:12;;;;;;;11.18;2.67;;;20.60;63.70;;;;;;4899097;29;20063;-76
2022/05/15 16:50:38;;;;;;;31.75;5.40;;;20.60;63.60;;;;;;4899602;29;20095;-77
2022/05/15 16:53:04;;;;;;;12.13;2.97;;;20.60;64.10;;;;;;4898480;29;20067;-76
2022/05/15 16:55:36;;;;;;;14.65;3.47;;;20.60;65.00;;;;;;4914434;29;20139;-75
2022/05/15 16:58:05;;;;;;;22.08;2.88;;;20.60;64.60;;;;;;4896415;29;20041;-76
2022/05/15 17:00:32;;;;;;;18.17;3.00;;;20.60;64.60;;;;;;4901816;29;20036;-77
2022/05/15 17:02:57;;;;;;;14.20;2.95;;;20.60;64.40;;;;;;4902936;29;20064;-77
2022/05/15 17:05:24;;;;;;;12.18;2.55;;;20.60;64.40;;;;;;4886288;29;20044;-78
2022/05/15 17:07:50;;;;;;;13.18;2.50;;;20.60;64.60;;;;;;4902668;29;20067;-76
2022/05/15 17:10:18;;;;;;;13.40;2.45;;;20.60;64.80;;;;;;4902068;29;20080;-76
2022/05/15 17:12:52;;;;;;;9.93;2.95;;;20.50;65.00;;;;;;4901751;29;20049;-76
2022/05/15 17:15:19;;;;;;;10.27;2.30;;;20.50;65.20;;;;;;4903075;29;20378;-77
2022/05/15 17:17:45;;;;;;;15.52;3.03;;;20.50;65.40;;;;;;4902497;29;20048;-76
2022/05/15 17:20:11;;;;;;;7.47;2.70;;;20.50;65.40;;;;;;4902692;29;20075;-77
2022/05/15 17:22:37;;;;;;;12.25;2.42;;;20.50;65.70;;;;;;4886909;29;20191;-77
2022/05/15 17:25:05;;;;;;;13.10;2.25;;;20.50;65.60;;;;;;4886068;29;20057;-76
2022/05/15 17:27:31;;;;;;;7.03;2.10;;;20.50;65.60;;;;;;4902179;29;20044;-77
2022/05/15 17:35:26;;;;;;;9.82;3.15;;;20.50;66.00;;;;;;4902511;29;20052;-76
2022/05/15 17:37:51;;;;;;;12.15;2.65;;;20.50;65.90;;;;;;4901928;29;20072;-77
2022/05/15 17:40:22;;;;;;;9.73;2.42;;;20.50;65.90;;;;;;4902748;29;20172;-78
2022/05/15 17:42:48;;;;;;;11.18;2.38;;;20.50;65.90;;;;;;4902440;29;20057;-76
2022/05/15 17:45:18;;;;;;;9.20;2.65;;;20.50;66.00;;;;;;4902395;29;20419;-78
2022/05/15 17:47:46;;;;;;;11.10;2.75;;;20.50;66.10;;;;;;4901877;29;20497;-76
2022/05/15 17:50:13;;;;;;;6.15;1.95;;;20.40;66.20;;;;;;4901628;29;20052;-77
2022/05/15 17:52:39;;;;;;;8.32;2.55;;;20.40;66.30;;;;;;4902006;29;20453;-76
2022/05/15 17:55:07;;;;;;;7.35;2.47;;;20.40;67.00;;;;;;4902095;29;20052;-76
2022/05/15 17:57:32;;;;;;;8.27;1.92;;;20.40;66.50;;;;;;4901731;29;20461;-76
2022/05/15 17:59:59;;;;;;;8.15;2.67;;;20.40;66.60;;;;;;4902091;29;20049;-77
2022/05/15 18:02:25;;;;;;;9.20;2.83;;;20.40;66.40;;;;;;4901492;29;20056;-76
2022/05/15 18:04:52;;;;;;;7.72;2.10;;;20.40;66.30;;;;;;4901882;29;20061;-76
2022/05/15 18:07:18;;;;;;;7.97;2.60;;;20.40;66.20;;;;;;4900401;29;20059;-77
2022/05/15 18:09:44;;;;;;;6.07;2.25;;;20.40;66.00;;;;;;4900280;29;20052;-77
2022/05/15 18:12:10;;;;;;;5.60;1.70;;;20.40;65.80;;;;;;4901215;29;20048;-77
2022/05/15 18:14:39;;;;;;;6.70;2.08;;;20.40;65.70;;;;;;4882870;29;20060;-75
2022/05/15 18:17:08;;;;;;;6.78;1.73;;;20.40;65.40;;;;;;4901284;29;20454;-76
2022/05/15 18:19:34;;;;;;;9.30;2.38;;;20.40;66.20;;;;;;4901436;29;20127;-75
2022/05/15 18:22:01;;;;;;;8.10;2.50;;;20.40;65.40;;;;;;4901628;29;20056;-76
2022/05/15 18:24:27;;;;;;;7.93;2.15;;;20.40;65.40;;;;;;4900892;29;20462;-75
2022/05/15 18:26:52;;;;;;;6.43;2.05;;;20.40;65.20;;;;;;4901586;29;20048;-76
2022/05/15 18:29:18;;;;;;;7.43;2.17;;;20.40;65.30;;;;;;4901184;29;20067;-76
2022/05/15 18:31:45;;;;;;;8.02;1.75;;;20.40;65.30;;;;;;4900844;29;20049;-76
2022/05/15 18:34:12;;;;;;;6.65;2.03;;;20.40;65.30;;;;;;4901273;29;20044;-76
2022/05/15 18:36:39;;;;;;;9.77;2.33;;;20.40;65.40;;;;;;4901120;29;20139;-75
2022/05/15 18:39:06;;;;;;;10.48;2.72;;;20.40;65.30;;;;;;4901584;29;20136;-73
2022/05/15 18:41:38;;;;;;;9.75;2.65;;;20.30;65.40;;;;;;4901331;29;20052;-75
2022/05/15 18:44:05;;;;;;;6.22;2.05;;;20.30;65.30;;;;;;4901177;29;20044;-74
2022/05/15 18:46:31;;;;;;;12.50;2.67;;;20.30;65.20;;;;;;4901389;29;20115;-75